createdAt,value
2022-09-10T00:01:40.490Z,100507.19
2022-09-10T00:06:43.571Z,100536.13
2022-09-10T00:11:46.675Z,100509.19
2022-09-10T00:16:50.203Z,100524.84
2022-09-10T00:21:52.393Z,100535.19
2022-09-10T00:26:54.667Z,100513.63
2022-09-10T00:31:57.064Z,100523.56
2022-09-10T00:36:59.599Z,100557.53
2022-09-10T00:42:01.815Z,100536.91
2022-09-10T00:47:06.135Z,100511.09
2022-09-10T00:52:09.558Z,100584.28
2022-09-10T00:57:14.570Z,100578.63
2022-09-10T01:02:16.977Z,100538.56
2022-09-10T01:07:21.629Z,100542.28
2022-09-10T01:12:41.283Z,100577.69
2022-09-10T01:18:22.622Z,100535.19
2022-09-10T01:23:52.852Z,100586.72
2022-09-10T01:29:01.450Z,100597.72
2022-09-10T01:34:34.736Z,100575.81
2022-09-10T01:39:39.136Z,100580.41
2022-09-10T01:44:47.982Z,100598.88
2022-09-10T01:50:24.524Z,100588.03
2022-09-10T01:55:42.400Z,100590.69
2022-09-10T02:00:58.670Z,100562.19
2022-09-10T02:06:02.533Z,100506.81
2022-09-10T02:11:12.042Z,100571.50
2022-09-10T02:16:42.107Z,100491.00
2022-09-10T02:22:24.175Z,100593.59
2022-09-10T02:27:30.242Z,100232.00
2022-09-10T02:32:32.767Z,100518.34
2022-09-10T02:37:36.054Z,100485.66
2022-09-10T02:42:38.561Z,100155.84
2022-09-10T02:47:41.125Z,100466.09
2022-09-10T02:52:46.600Z,100313.41
2022-09-10T02:57:49.434Z,100236.75
2022-09-10T03:02:52.087Z,100441.03
2022-09-10T03:07:55.655Z,100417.78
2022-09-10T03:12:58.527Z,100215.94
2022-09-10T03:18:00.694Z,100153.97
2022-09-10T03:23:06.631Z,100537.75
2022-09-10T03:28:09.903Z,100582.94
2022-09-10T03:33:12.236Z,100513.53
2022-09-10T03:38:15.927Z,100503.69
2022-09-10T03:43:18.833Z,100556.63
2022-09-10T03:48:21.574Z,100565.72
2022-09-10T03:53:24.313Z,100575.25
2022-09-10T03:58:27.684Z,100531.31
2022-09-10T04:03:30.057Z,100545.41
2022-09-10T04:08:34.847Z,100539.50
2022-09-10T04:13:40.229Z,100541.50
2022-09-10T04:18:42.872Z,100556.00
2022-09-10T04:23:45.853Z,100462.50
2022-09-10T04:28:48.699Z,100578.69
2022-09-10T04:33:52.116Z,100478.06
2022-09-10T04:38:59.244Z,100568.63
2022-09-10T04:44:02.331Z,100555.75
2022-09-10T04:49:04.658Z,100540.72
2022-09-10T04:54:07.775Z,100595.22
2022-09-10T04:59:12.793Z,100550.34
2022-09-10T05:04:15.094Z,100589.94
2022-09-10T05:09:34.090Z,100597.72
2022-09-10T05:14:38.840Z,100571.56
2022-09-10T05:19:42.166Z,100532.28
2022-09-10T05:24:47.101Z,100586.03
2022-09-10T05:29:50.372Z,100584.69
2022-09-10T05:34:58.204Z,100581.25
2022-09-10T05:40:13.580Z,100312.44
2022-09-10T05:45:17.919Z,100416.41
2022-09-10T05:50:20.589Z,100255.06
2022-09-10T05:55:23.368Z,100517.44
2022-09-10T06:00:26.485Z,100202.16
2022-09-10T06:05:36.154Z,100530.91
2022-09-10T06:10:44.185Z,100316.28
2022-09-10T06:15:47.850Z,100519.28
2022-09-10T06:20:50.368Z,100495.06
2022-09-10T06:26:04.598Z,100510.56
2022-09-10T06:31:14.554Z,100524.56
2022-09-10T06:36:19.546Z,100472.41
2022-09-10T06:41:27.191Z,100528.69
2022-09-10T06:47:19.911Z,100555.00
2022-09-10T06:52:13.285Z,100556.16
2022-09-10T06:57:15.500Z,100517.91
2022-09-10T07:02:17.802Z,100448.91
2022-09-10T07:07:22.318Z,100566.59
2022-09-10T07:12:26.174Z,100540.59
2022-09-10T07:17:31.753Z,100522.59
2022-09-10T07:22:35.722Z,100455.38
2022-09-10T07:27:38.992Z,100489.16
2022-09-10T07:32:43.440Z,100494.19
2022-09-10T07:37:50.561Z,100540.22
2022-09-10T07:42:55.960Z,100501.72
2022-09-10T07:47:59.267Z,100525.06
2022-09-10T07:53:05.799Z,100043.06
2022-09-10T07:58:10.488Z,100222.97
2022-09-10T08:03:20.447Z,100231.13
2022-09-10T08:08:24.575Z,100403.00
2022-09-10T08:13:30.123Z,100269.34
2022-09-10T08:18:33.608Z,100190.59
2022-09-10T08:23:37.685Z,100251.59
2022-09-10T08:28:40.490Z,99975.22
2022-09-10T08:33:51.716Z,100349.59
2022-09-10T08:38:59.810Z,100203.84
2022-09-10T08:44:34.879Z,100089.22
2022-09-10T08:49:50.562Z,100320.28
2022-09-10T08:55:06.164Z,100497.47
2022-09-10T09:00:13.751Z,100173.50
2022-09-10T09:05:23.033Z,99928.94
2022-09-10T09:10:47.924Z,100368.84
2022-09-10T09:15:59.549Z,100053.16
2022-09-10T09:21:28.261Z,100048.75
2022-09-10T09:26:41.721Z,100416.59
2022-09-10T09:31:49.856Z,100410.50
2022-09-10T09:36:54.863Z,100479.94
2022-09-10T09:42:12.673Z,100417.75
2022-09-10T09:47:15.117Z,100408.16
2022-09-10T09:52:25.057Z,100406.50
2022-09-10T09:57:28.071Z,100339.00
2022-09-10T10:02:30.835Z,100287.28
2022-09-10T10:07:42.512Z,100326.78
2022-09-10T10:12:49.579Z,100407.50
2022-09-10T10:17:51.906Z,100335.63
2022-09-10T10:22:59.728Z,100319.91
2022-09-10T10:28:21.159Z,100179.69
2022-09-10T10:33:29.931Z,100400.59
2022-09-10T10:38:41.111Z,100409.34
2022-09-10T10:44:10.874Z,100378.69
2022-09-10T10:49:36.036Z,100392.69
2022-09-10T10:54:59.803Z,100381.31
2022-09-10T11:00:10.197Z,100340.97
2022-09-10T11:05:42.485Z,100294.53
2022-09-10T11:10:52.385Z,100368.09
2022-09-10T11:16:04.488Z,100341.78
2022-09-10T11:21:33.958Z,100290.97
2022-09-10T11:26:45.229Z,100347.06
2022-09-10T11:32:06.522Z,100349.63
2022-09-10T11:37:29.422Z,100344.31
2022-09-10T11:42:42.528Z,100336.38
2022-09-10T11:47:57.472Z,100293.44
2022-09-10T11:53:05.966Z,100288.16
2022-09-10T11:58:11.190Z,100315.25
2022-09-10T12:03:54.508Z,100308.19
2022-09-10T12:09:21.955Z,100294.06
2022-09-10T12:14:24.268Z,100260.84
2022-09-10T12:19:37.846Z,100248.47
2022-09-10T12:24:40.449Z,100235.41
2022-09-10T12:29:43.358Z,100250.28
2022-09-10T12:34:50.052Z,100230.16
2022-09-10T12:40:26.687Z,100265.03
2022-09-10T12:46:01.055Z,100262.34
2022-09-10T12:51:18.681Z,100250.94
2022-09-10T12:56:40.633Z,100247.44
2022-09-10T13:01:46.668Z,100243.06
2022-09-10T13:06:49.148Z,100212.41
2022-09-10T13:11:56.826Z,100225.47
2022-09-10T13:16:59.200Z,100152.97
2022-09-10T13:22:01.660Z,100161.66
2022-09-10T13:27:13.159Z,100200.84
2022-09-10T13:32:30.412Z,100161.53
2022-09-10T13:37:46.932Z,100130.91
2022-09-10T13:42:58.856Z,100126.53
2022-09-10T13:48:15.288Z,100146.66
2022-09-10T13:53:18.285Z,100125.69
2022-09-10T13:58:23.407Z,100193.06
2022-09-10T14:03:40.673Z,100154.56
2022-09-10T14:08:58.109Z,100180.78
2022-09-10T14:14:06.193Z,100183.50
2022-09-10T14:19:16.722Z,100139.72
2022-09-10T14:24:29.899Z,100076.78
2022-09-10T14:29:32.288Z,100100.44
2022-09-10T14:34:39.419Z,100020.97
2022-09-10T14:39:45.227Z,100036.75
2022-09-10T14:44:47.549Z,100109.31
2022-09-10T14:49:49.806Z,100013.22
2022-09-10T14:54:51.992Z,100091.94
2022-09-10T14:59:57.245Z,100086.75
2022-09-10T15:04:59.961Z,100079.88
2022-09-10T15:10:02.487Z,100073.75
2022-09-10T15:15:06.153Z,100115.81
2022-09-10T15:20:13.660Z,100100.09
2022-09-10T15:25:37.542Z,100118.47
2022-09-10T15:30:41.213Z,100096.63
2022-09-10T15:35:43.438Z,100052.03
2022-09-10T15:40:48.891Z,100137.78
2022-09-10T15:45:53.463Z,100087.00
2022-09-10T15:50:56.632Z,100086.97
2022-09-10T15:56:03.250Z,100065.94
2022-09-10T16:01:14.168Z,100098.31
2022-09-10T16:06:18.512Z,100038.69
2022-09-10T16:11:20.953Z,100086.78
2022-09-10T16:16:26.487Z,100106.88
2022-09-10T16:21:31.420Z,100101.53
2022-09-10T16:26:39.256Z,100055.00
2022-09-10T16:31:53.601Z,100117.13
2022-09-10T16:36:56.151Z,100049.59
2022-09-10T16:42:01.462Z,100061.72
2022-09-10T16:47:04.034Z,100073.84
2022-09-10T16:52:06.387Z,100117.63
2022-09-10T16:57:08.668Z,100123.63
2022-09-10T17:02:13.932Z,99971.03
2022-09-10T17:07:16.185Z,99964.72
2022-09-10T17:12:18.599Z,100068.94
2022-09-10T17:17:28.232Z,99884.81
2022-09-10T17:22:33.369Z,99814.63
2022-09-10T17:27:35.736Z,100074.72
2022-09-10T17:32:38.137Z,100067.75
2022-09-10T17:37:41.485Z,100096.66
2022-09-10T17:42:45.751Z,100067.59
2022-09-10T17:47:48.804Z,100042.06
2022-09-10T17:52:51.417Z,100104.16
2022-09-10T17:57:53.734Z,100019.13
2022-09-10T18:02:56.327Z,100082.97
2022-09-10T18:08:00.691Z,100042.63
2022-09-10T18:13:04.045Z,100083.66
2022-09-10T18:18:06.644Z,100012.59
2022-09-10T18:23:09.146Z,100036.09
2022-09-10T18:28:17.177Z,100073.69
2022-09-10T18:33:20.781Z,100103.38
2022-09-10T18:38:32.553Z,100062.09
2022-09-10T18:43:40.195Z,100091.84
2022-09-10T18:48:43.211Z,100063.72
2022-09-10T18:53:52.145Z,99984.63
2022-09-10T18:59:00.792Z,100082.75
2022-09-10T19:04:05.598Z,100087.03
2022-09-10T19:09:11.240Z,100045.69
2022-09-10T19:14:26.654Z,100092.94
2022-09-10T19:19:35.262Z,100093.56
2022-09-10T19:24:53.867Z,100028.63
2022-09-10T19:29:57.256Z,100051.41
2022-09-10T19:34:59.740Z,99944.16
2022-09-10T19:40:02.736Z,100000.28
2022-09-10T19:45:10.077Z,100023.72
2022-09-10T19:50:13.047Z,100057.03
2022-09-10T19:55:15.717Z,100058.59
2022-09-10T20:00:43.008Z,100067.31
2022-09-10T20:05:45.608Z,100047.88
2022-09-10T20:10:52.246Z,100051.16
2022-09-10T20:15:55.272Z,100038.81
2022-09-10T20:21:11.056Z,100052.91
2022-09-10T20:26:20.568Z,100035.91
2022-09-10T20:31:24.529Z,100051.72
2022-09-10T20:36:28.265Z,99987.53
2022-09-10T20:41:30.843Z,100044.38
2022-09-10T20:46:34.861Z,100066.13
2022-09-10T20:51:39.084Z,100103.69
2022-09-10T20:56:41.736Z,100072.84
2022-09-10T21:01:46.252Z,100106.13
2022-09-10T21:06:48.951Z,100058.47
2022-09-10T21:11:52.084Z,100076.78
2022-09-10T21:16:54.428Z,100065.25
2022-09-10T21:21:56.871Z,100093.16
2022-09-10T21:26:59.820Z,100067.38
2022-09-10T21:32:02.625Z,100044.59
2022-09-10T21:37:04.839Z,100055.06
2022-09-10T21:42:07.241Z,100092.66
2022-09-10T21:47:11.162Z,100091.69
2022-09-10T21:52:14.937Z,100093.34
2022-09-10T21:57:17.188Z,100057.03
2022-09-10T22:02:19.536Z,100077.19
2022-09-10T22:07:22.204Z,100082.56
2022-09-10T22:12:24.664Z,100075.34
2022-09-10T22:17:26.888Z,100068.19
2022-09-10T22:22:29.317Z,100042.53
2022-09-10T22:27:31.628Z,100067.13
2022-09-10T22:32:34.264Z,100055.69
2022-09-10T22:37:36.617Z,100060.97
2022-09-10T22:42:38.905Z,100016.84
2022-09-10T22:47:41.169Z,100061.81
2022-09-10T22:52:47.054Z,100045.84
2022-09-10T22:57:49.278Z,100029.28
2022-09-10T23:02:55.086Z,99905.97
2022-09-10T23:07:57.860Z,99994.31
2022-09-10T23:13:00.404Z,100020.00
2022-09-10T23:18:02.627Z,100030.53
2022-09-10T23:23:04.974Z,100030.53
2022-09-10T23:28:07.521Z,99912.53
2022-09-10T23:33:10.107Z,99962.47
2022-09-10T23:38:12.333Z,100028.44
2022-09-10T23:43:14.720Z,99949.22
2022-09-10T23:48:16.959Z,100011.81
2022-09-10T23:53:19.801Z,99975.53
2022-09-10T23:58:22.095Z,100008.91
